Time;durP1;ratioP1;P1;durP2;ratioP2;P2;SDS_P1;SDS_P2;PMS_P1;PMS_P2;Temp;Humidity;BMP_temperature;BMP_pressure;BME280_temperature;BME280_humidity;BME280_pressure;Samples;Min_cycle;Max_cycle;Signal;HPM_P1;HPM_P2
2022/05/09 00:00:33;;;;;;;4.80;2.10;;;;;;;14.08;70.27;99195.12;105575;1281;22559;-78
2022/05/09 00:03:07;;;;;;;3.90;2.90;;;;;;;13.98;71.01;99193.05;106361;1281;25268;-79
2022/05/09 00:05:48;;;;;;;5.30;2.40;;;;;;;13.91;72.04;99197.26;105853;1282;137744;-79
2022/05/09 00:08:15;;;;;;;5.60;2.90;;;;;;;13.85;73.12;99201.33;105941;1281;22538;-79
2022/05/09 00:10:55;;;;;;;5.40;2.80;;;;;;;13.72;74.13;99211.06;106499;1281;136982;-79
2022/05/09 00:13:23;;;;;;;6.80;3.40;;;;;;;13.59;75.07;99213.95;105622;1281;22810;-79
2022/05/09 00:15:49;;;;;;;4.80;2.90;;;;;;;13.45;75.43;99209.17;105658;1284;22660;-79
2022/05/09 00:18:20;;;;;;;4.40;2.90;;;;;;;13.35;76.04;99210.02;106014;1281;138117;-79
2022/05/09 00:20:47;;;;;;;3.00;2.60;;;;;;;13.29;76.39;99210.15;106087;1281;25327;-79
2022/05/09 00:23:14;;;;;;;7.10;3.40;;;;;;;13.29;76.84;99212.77;106135;1281;137872;-79
2022/05/09 00:25:41;;;;;;;4.80;3.40;;;;;;;13.33;77.33;99219.92;106111;1281;22538;-79
2022/05/09 00:28:08;;;;;;;9.40;3.80;;;;;;;13.36;77.51;99224.02;106340;1280;137000;-79
2022/05/09 00:30:35;;;;;;;4.50;3.50;;;;;;;13.38;77.51;99227.20;105698;1281;22605;-79
2022/05/09 00:33:02;;;;;;;3.80;3.10;;;;;;;13.43;77.61;99233.26;106311;1281;22557;-79
2022/05/09 00:35:29;;;;;;;5.20;3.30;;;;;;;13.50;77.42;99234.43;105919;1280;137704;-79
2022/05/09 00:38:10;;;;;;;3.90;3.30;;;;;;;13.57;77.67;99239.37;106374;1280;22541;-78
2022/05/09 00:40:39;;;;;;;5.80;3.80;;;;;;;13.63;77.58;99237.55;106062;1280;137589;-79
2022/05/09 00:43:28;;;;;;;4.60;3.70;;;;;;;13.63;77.17;99238.49;106211;1283;24543;-78
2022/05/09 00:45:55;;;;;;;4.00;3.20;;;;;;;13.63;77.48;99238.02;105884;1283;24445;-78
2022/05/09 00:48:23;;;;;;;3.70;3.40;;;;;;;13.67;77.58;99240.66;106326;1281;137602;-80
2022/05/09 00:50:50;;;;;;;4.50;3.50;;;;;;;13.72;77.54;99243.45;105944;1281;22572;-79
2022/05/09 00:53:16;;;;;;;5.30;3.50;;;;;;;13.75;77.59;99239.85;105952;1280;137287;-79
2022/05/09 00:55:51;;;;;;;4.60;3.60;;;;;;;13.77;77.73;99239.13;106251;1281;22720;-79
2022/05/09 00:58:27;;;;;;;6.30;3.70;;;;;;;13.79;77.70;99242.40;106209;1281;137466;-80
2022/05/09 01:00:55;;;;;;;3.70;3.20;;;;;;;13.80;77.60;99244.84;106145;1280;22554;-79
2022/05/09 01:03:45;;;;;;;4.20;3.70;;;;;;;13.81;77.39;99244.34;106177;1281;22574;-79
2022/05/09 01:06:12;;;;;;;4.80;4.00;;;;;;;13.79;77.63;99242.40;106427;1281;137310;-79
2022/05/09 01:08:39;;;;;;;7.80;3.90;;;;;;;13.80;77.58;99246.64;106000;1281;23911;-79
2022/05/09 01:11:09;;;;;;;4.70;3.90;;;;;;;13.81;77.60;99252.09;105959;1281;137640;-79
2022/05/09 01:13:44;;;;;;;7.40;3.70;;;;;;;13.80;77.61;99254.13;106212;1281;25628;-79
2022/05/09 01:16:16;;;;;;;7.00;4.00;;;;;;;13.84;77.48;99253.92;106026;1281;137999;-79
2022/05/09 01:18:44;;;;;;;7.20;4.60;;;;;;;13.82;77.43;99253.80;105811;1281;25219;-80
2022/05/09 01:21:31;;;;;;;6.10;4.40;;;;;;;13.81;77.56;99255.08;105919;1281;24244;-80
2022/05/09 01:23:58;;;;;;;5.80;4.20;;;;;;;13.76;77.73;99250.73;106124;1280;137687;-79
2022/05/09 01:26:25;;;;;;;4.30;3.50;;;;;;;13.76;77.83;99254.95;106096;1280;22637;-79
2022/05/09 01:28:59;;;;;;;4.40;4.00;;;;;;;13.75;77.62;99250.49;105639;1281;137443;-79
2022/05/09 01:31:26;;;;;;;5.70;4.30;;;;;;;13.72;77.86;99244.46;106154;1281;24420;-79
2022/05/09 01:33:55;;;;;;;6.20;4.70;;;;;;;13.71;77.83;99244.71;105865;1281;25378;-79
2022/05/09 01:36:32;;;;;;;5.80;4.40;;;;;;;13.67;77.56;99240.75;105907;1281;136936;-79
2022/05/09 01:39:06;;;;;;;4.70;4.20;;;;;;;13.62;77.77;99238.63;105739;1284;23183;-79
2022/05/09 01:41:45;;;;;;;4.60;4.20;;;;;;;13.60;78.36;99246.21;105869;1284;137892;-79
2022/05/09 01:44:15;;;;;;;6.00;4.50;;;;;;;13.61;78.13;99252.04;106474;1281;25307;-79
2022/05/09 01:49:40;;;;;;;5.70;4.50;;;;;;;13.58;78.39;99252.48;105708;1281;25395;-79
2022/05/09 01:52:11;;;;;;;6.40;4.10;;;;;;;13.56;78.45;99246.84;106432;1281;137273;-79
2022/05/09 01:54:41;;;;;;;6.40;4.10;;;;;;;13.55;78.50;99245.57;106074;1281;30363;-79
2022/05/09 01:57:08;;;;;;;5.20;4.30;;;;;;;13.54;78.43;99249.66;106423;1281;22584;-79
2022/05/09 01:59:35;;;;;;;5.30;4.30;;;;;;;13.54;78.61;99246.64;105738;1281;137821;-79
2022/05/09 02:02:08;;;;;;;7.00;4.40;;;;;;;13.54;78.88;99251.95;106123;1281;24243;-78
2022/05/09 02:04:40;;;;;;;5.70;3.60;;;;;;;13.54;78.95;99251.06;106208;1281;137209;-78
2022/05/09 02:07:13;;;;;;;6.70;3.60;;;;;;;13.56;79.03;99254.46;106036;1281;22545;-78
2022/05/09 02:09:46;;;;;;;5.90;4.00;;;;;;;13.60;78.98;99256.73;105866;1282;23181;-78
2022/05/09 02:12:14;;;;;;;5.20;3.80;;;;;;;13.63;78.80;99260.55;106376;1283;137821;-79
2022/05/09 02:14:41;;;;;;;6.30;4.60;;;;;;;13.61;78.76;99261.73;105978;1281;22625;-79
2022/05/09 02:17:09;;;;;;;5.60;5.00;;;;;;;13.58;78.88;99262.22;106209;1281;137998;-79
2022/05/09 02:19:37;;;;;;;6.50;5.00;;;;;;;13.54;79.03;99260.79;106236;1281;25255;-79
2022/05/09 02:22:04;;;;;;;7.60;5.20;;;;;;;13.57;78.84;99264.05;106340;1284;137872;-79
2022/05/09 02:24:40;;;;;;;6.60;4.90;;;;;;;13.56;78.59;99265.63;105881;1281;22593;-78
2022/05/09 02:27:09;;;;;;;5.30;4.70;;;;;;;13.55;78.70;99270.31;105895;1282;22578;-78
2022/05/09 02:29:39;;;;;;;6.60;4.90;;;;;;;13.51;78.49;99271.05;105796;1281;137364;-79
2022/05/09 02:32:09;;;;;;;4.70;4.30;;;;;;;13.48;78.71;99275.88;105807;1281;22564;-79
2022/05/09 02:34:36;;;;;;;5.50;4.10;;;;;;;13.46;78.64;99281.20;105846;1281;138363;-79
2022/05/09 02:37:04;;;;;;;5.90;4.10;;;;;;;13.46;78.48;99283.82;106180;1281;24896;-79
2022/05/09 02:39:33;;;;;;;6.60;4.80;;;;;;;13.44;78.76;99280.19;106222;1281;25321;-79
2022/05/09 02:42:14;;;;;;;6.40;4.90;;;;;;;13.44;78.94;99279.96;106022;1281;137702;-80
2022/05/09 02:44:41;;;;;;;6.60;4.30;;;;;;;13.41;78.84;99280.06;106032;1281;22621;-79
2022/05/09 02:47:08;;;;;;;5.30;4.20;;;;;;;13.40;78.90;99281.17;106061;1281;137927;-79
2022/05/09 02:49:35;;;;;;;5.70;4.40;;;;;;;13.39;78.61;99283.26;105873;1281;25368;-79
2022/05/09 02:52:04;;;;;;;6.70;5.40;;;;;;;13.37;78.38;99288.02;105814;1281;137584;-79
2022/05/09 02:54:31;;;;;;;7.30;5.00;;;;;;;13.31;77.80;99292.33;106338;1281;25522;-80
2022/05/09 02:56:58;;;;;;;6.10;4.90;;;;;;;13.23;77.35;99294.00;106057;1281;24239;-79
2022/05/09 02:59:29;;;;;;;7.50;5.40;;;;;;;13.13;77.11;99299.14;105843;1281;137979;-79
2022/05/09 03:01:58;;;;;;;5.30;4.70;;;;;;;13.02;76.81;99292.15;105929;1281;23936;-79
2022/05/09 03:07:17;;;;;;;7.90;4.70;;;;;;;12.85;77.28;99288.86;106150;1281;22649;-79
2022/05/09 03:09:47;;;;;;;7.70;4.90;;;;;;;12.82;77.06;99286.84;105916;1281;22543;-79
2022/05/09 03:12:14;;;;;;;;;;;;;;;12.81;77.08;99287.84;106147;1281;137452;-79
2022/05/09 03:14:41;;;;;;;7.30;4.80;;;;;;;12.78;77.14;99292.81;105923;1283;24396;-79
2022/05/09 03:17:09;;;;;;;6.70;5.10;;;;;;;12.74;76.84;99292.00;105917;1281;137219;-81
2022/05/09 03:19:36;;;;;;;7.00;5.10;;;;;;;12.70;77.03;99291.70;106262;1281;24237;-78
2022/05/09 03:22:04;;;;;;;6.50;4.60;;;;;;;12.70;77.21;99292.58;105930;1281;138168;-79
2022/05/09 03:24:31;;;;;;;5.80;4.40;;;;;;;12.68;76.93;99293.86;105915;1280;22559;-79
2022/05/09 03:27:14;;;;;;;7.30;4.60;;;;;;;12.67;77.04;99290.48;105936;1281;22659;-80
2022/05/09 03:29:41;;;;;;;6.60;4.70;;;;;;;12.66;76.99;99296.85;106092;1281;137415;-80
2022/05/09 03:32:08;;;;;;;6.00;5.40;;;;;;;12.63;76.88;99296.20;107022;1280;22535;-79
2022/05/09 03:34:35;;;;;;;7.70;4.90;;;;;;;12.61;76.97;99295.60;105819;1281;137482;-80
2022/05/09 03:37:02;;;;;;;6.50;4.50;;;;;;;12.61;77.29;99294.72;106386;1277;25253;-80
2022/05/09 03:39:29;;;;;;;8.20;5.10;;;;;;;12.62;76.98;99295.84;106366;1277;23232;-79
2022/05/09 03:41:56;;;;;;;6.30;4.70;;;;;;;12.63;76.83;99296.73;106028;1277;137680;-79
2022/05/09 03:44:25;;;;;;;7.20;5.20;;;;;;;12.65;77.07;99298.14;106185;1277;22551;-80
2022/05/09 03:46:51;;;;;;;9.00;5.30;;;;;;;12.67;77.52;99298.85;106014;1277;137168;-79
2022/05/09 03:49:19;;;;;;;9.30;5.00;;;;;;;12.66;77.09;99298.39;106271;1277;25222;-79
2022/05/09 03:51:51;;;;;;;8.60;4.90;;;;;;;12.66;77.25;99300.91;106264;1277;22564;-79
2022/05/09 03:54:31;;;;;;;8.40;5.30;;;;;;;12.69;77.25;99299.06;106216;1280;137592;-79
2022/05/09 03:57:00;;;;;;;10.60;5.50;;;;;;;12.71;77.43;99303.35;106693;1277;22604;-79
2022/05/09 03:59:27;;;;;;;9.40;5.30;;;;;;;12.73;77.37;99301.34;106051;1278;137498;-80
2022/05/09 04:01:56;;;;;;;5.80;4.60;;;;;;;12.76;77.16;99301.88;106069;1277;23491;-79
2022/05/09 04:04:37;;;;;;;8.90;5.30;;;;;;;12.76;76.87;99305.52;106537;1277;137473;-79
2022/05/09 04:07:04;;;;;;;8.50;5.50;;;;;;;12.75;76.45;99312.25;106418;1276;23341;-79
2022/05/09 04:09:31;;;;;;;10.80;4.50;;;;;;;12.72;76.43;99318.86;106235;1276;22630;-80
2022/05/09 04:11:58;;;;;;;11.00;5.10;;;;;;;12.69;76.30;99322.19;106089;1276;137590;-80
2022/05/09 04:17:20;;;;;;;7.30;5.50;;;;;;;12.74;76.44;99319.99;106256;1277;137168;-80
2022/05/09 04:19:47;;;;;;;6.10;4.60;;;;;;;12.76;76.62;99321.20;106520;1277;25261;-80
2022/05/09 04:22:15;;;;;;;10.30;5.60;;;;;;;12.75;75.86;99323.14;106044;1277;137873;-80
2022/05/09 04:24:43;;;;;;;13.40;5.70;;;;;;;12.73;75.81;99326.44;106486;1277;24395;-79
2022/05/09 04:27:10;;;;;;;9.40;5.40;;;;;;;12.74;75.52;99330.71;106464;1277;23180;-78
2022/05/09 04:29:51;;;;;;;7.80;5.00;;;;;;;12.74;75.26;99329.84;105982;1277;137834;-80
2022/05/09 04:32:18;;;;;;;8.60;4.60;;;;;;;12.76;75.55;99337.59;106420;1277;22547;-79
2022/05/09 04:34:45;;;;;;;8.10;5.20;;;;;;;12.78;75.58;99335.11;106357;1275;137491;-79
2022/05/09 04:37:12;;;;;;;8.30;5.30;;;;;;;12.79;75.30;99335.31;106409;1277;22544;-79
2022/05/09 04:39:39;;;;;;;6.90;5.30;;;;;;;12.79;74.91;99332.17;106156;1277;22583;-80
2022/05/09 04:42:07;;;;;;;10.00;4.90;;;;;;;12.78;75.23;99332.48;106331;1277;138144;-79
2022/05/09 04:44:37;;;;;;;12.20;5.10;;;;;;;12.82;75.70;99332.48;106264;1277;22570;-80
2022/05/09 04:47:04;;;;;;;6.50;4.60;;;;;;;12.87;75.44;99331.87;106432;1277;138037;-80
2022/05/09 04:49:31;;;;;;;8.10;5.50;;;;;;;12.90;74.92;99337.20;107073;1276;22534;-80
2022/05/09 04:51:58;;;;;;;6.70;4.50;;;;;;;12.95;75.17;99340.52;106495;1277;25417;-80
2022/05/09 04:54:25;;;;;;;9.80;6.50;;;;;;;12.94;74.36;99341.71;106852;1276;137937;-80
2022/05/09 04:56:52;;;;;;;9.60;5.70;;;;;;;12.94;74.80;99343.69;106565;1277;22960;-80
2022/05/09 04:59:19;;;;;;;5.40;4.90;;;;;;;12.96;74.38;99349.10;106915;1277;137765;-80
2022/05/09 05:01:46;;;;;;;12.20;5.30;;;;;;;12.97;74.31;99350.42;106556;1277;23320;-80
2022/05/09 05:04:14;;;;;;;7.90;4.80;;;;;;;13.01;74.48;99348.61;106615;1277;163660;-80
2022/05/09 05:06:40;;;;;;;8.70;5.00;;;;;;;13.06;74.36;99343.91;106493;1277;25371;-81
2022/05/09 05:09:10;;;;;;;7.00;5.00;;;;;;;13.10;74.21;99345.63;106605;1277;25349;-80
2022/05/09 05:11:37;;;;;;;9.70;5.90;;;;;;;13.13;73.88;99348.93;106880;1277;137731;-80
2022/05/09 05:14:04;;;;;;;8.10;5.00;;;;;;;13.16;73.72;99352.33;106923;1277;23297;-80
2022/05/09 05:19:14;;;;;;;6.90;4.70;;;;;;;13.22;73.25;99357.71;106480;1276;22539;-80
2022/05/09 05:21:42;;;;;;;9.60;4.60;;;;;;;13.24;72.48;99354.91;106429;1277;22699;-80
2022/05/09 05:24:10;;;;;;;10.00;4.80;;;;;;;13.25;72.43;99354.67;106533;1277;137918;-80
2022/05/09 05:26:52;;;;;;;7.00;4.70;;;;;;;13.30;72.32;99357.03;106545;1277;22535;-80
2022/05/09 05:29:19;;;;;;;6.50;3.70;;;;;;;13.35;72.39;99362.50;106285;1277;137341;-79
2022/05/09 05:31:47;;;;;;;10.00;5.10;;;;;;;13.38;71.65;99363.12;106753;1277;22746;-79
2022/05/09 05:34:15;;;;;;;5.80;4.50;;;;;;;13.43;72.12;99362.90;106536;1277;137456;-80
2022/05/09 05:36:42;;;;;;;10.60;5.00;;;;;;;13.51;72.30;99364.38;106838;1277;24414;-80
2022/05/09 05:39:13;;;;;;;8.50;4.60;;;;;;;13.60;71.98;99369.43;106841;1277;24065;-80
2022/05/09 05:41:54;;;;;;;10.00;5.00;;;;;;;13.67;71.56;99370.73;106703;1276;137561;-79
2022/05/09 05:44:21;;;;;;;7.50;4.60;;;;;;;13.75;71.17;99370.84;106456;1277;24356;-79
2022/05/09 05:46:48;;;;;;;8.70;4.60;;;;;;;13.78;70.59;99375.14;106077;1276;137739;-80
2022/05/09 05:49:33;;;;;;;8.00;4.50;;;;;;;13.83;70.68;99377.61;106489;1276;29833;-80
2022/05/09 05:52:03;;;;;;;5.10;4.30;;;;;;;13.85;70.19;99379.40;106403;1277;24324;-80
2022/05/09 05:54:40;;;;;;;7.50;4.40;;;;;;;13.88;70.19;99380.61;106387;1276;136997;-80
2022/05/09 05:57:25;;;;;;;8.30;4.80;;;;;;;13.91;69.64;99379.73;106969;1276;22835;-80
2022/05/09 06:00:11;;;;;;;8.90;5.10;;;;;;;13.92;69.98;99383.64;106687;1277;137276;-80
2022/05/09 06:02:44;;;;;;;7.80;4.50;;;;;;;13.98;69.79;99384.52;106431;1277;24307;-80
2022/05/09 06:05:12;;;;;;;7.60;4.50;;;;;;;14.04;69.61;99387.21;106361;1277;137580;-80
2022/05/09 06:07:43;;;;;;;7.30;4.40;;;;;;;14.08;68.69;99386.84;106604;1277;22559;-80
2022/05/09 06:10:12;;;;;;;6.90;4.30;;;;;;;14.09;68.48;99388.78;106698;1277;22562;-80
2022/05/09 06:12:39;;;;;;;6.20;4.20;;;;;;;14.12;68.27;99393.72;107555;1276;137078;-80
2022/05/09 06:17:49;;;;;;;4.60;3.70;;;;;;;14.22;67.51;99392.91;106694;1276;137070;-80
2022/05/09 06:20:16;;;;;;;9.60;4.60;;;;;;;14.26;66.60;99391.45;106460;1276;22684;-81
2022/05/09 06:22:44;;;;;;;5.90;4.20;;;;;;;14.29;67.56;99388.67;106519;1277;138024;-81
2022/05/09 06:25:15;;;;;;;9.80;4.50;;;;;;;14.38;67.63;99391.92;106672;1277;22710;-79
2022/05/09 06:27:47;;;;;;;7.90;4.50;;;;;;;14.46;67.64;99393.39;106324;1277;22545;-81
2022/05/09 06:30:16;;;;;;;10.40;5.30;;;;;;;14.52;67.67;99392.46;106562;1276;137283;-79
2022/05/09 06:32:43;;;;;;;;;;;;;;;14.59;66.77;99394.91;106841;1276;22588;-79
2022/05/09 06:35:15;;;;;;;8.60;4.70;;;;;;;14.61;66.09;99397.05;106794;1276;123548;-80
2022/05/09 06:37:42;;;;;;;6.80;4.90;;;;;;;14.67;65.51;99399.10;106582;1277;23375;-80
2022/05/09 06:40:10;;;;;;;6.50;4.70;;;;;;;14.71;64.63;99399.71;106812;1276;22535;-80
2022/05/09 06:42:37;;;;;;;10.10;6.10;;;;;;;14.75;64.38;99401.70;106495;1277;137178;-80
2022/05/09 06:45:06;;;;;;;8.60;5.40;;;;;;;14.81;65.21;99400.98;106680;1277;23269;-80
2022/05/09 06:47:33;;;;;;;9.50;5.20;;;;;;;14.90;65.38;99404.47;106683;1277;137166;-79
2022/05/09 06:50:05;;;;;;;7.00;4.90;;;;;;;14.97;65.35;99401.55;106686;1277;22572;-80
2022/05/09 06:52:34;;;;;;;9.10;5.70;;;;;;;15.02;64.53;99398.45;106361;1276;137717;-80
2022/05/09 06:55:15;;;;;;;10.50;5.70;;;;;;;15.06;64.32;99399.92;106526;1277;22694;-80
2022/05/09 06:57:44;;;;;;;12.40;5.50;;;;;;;15.12;64.91;99405.13;106467;1277;24246;-80
2022/05/09 07:00:18;;;;;;;7.50;5.50;;;;;;;15.20;64.62;99406.14;106581;1276;138187;-80
2022/05/09 07:02:46;;;;;;;8.80;5.90;;;;;;;15.28;64.73;99407.12;106510;1277;22552;-80
2022/05/09 07:05:18;;;;;;;9.70;6.50;;;;;;;15.32;64.32;99409.61;106164;1278;137117;-79
2022/05/09 07:07:45;;;;;;;7.70;5.20;;;;;;;15.37;64.08;99409.65;106482;1277;25660;-80
2022/05/09 07:10:14;;;;;;;9.70;5.70;;;;;;;15.43;63.56;99406.83;106787;1277;22563;-80
2022/05/09 07:12:45;;;;;;;9.40;5.20;;;;;;;15.50;63.16;99404.95;107074;1276;137277;-81
2022/05/09 07:15:16;;;;;;;9.70;5.90;;;;;;;15.56;63.05;99407.94;106403;1277;26722;-82
2022/05/09 07:17:43;;;;;;;7.60;5.70;;;;;;;15.64;63.41;99407.70;106510;1277;137307;-80
2022/05/09 07:20:10;;;;;;;7.50;5.50;;;;;;;15.73;63.00;99406.58;106945;1276;22543;-82
2022/05/09 07:22:38;;;;;;;8.00;5.00;;;;;;;15.82;62.57;99410.33;106680;1276;137485;-81
2022/05/09 07:25:05;;;;;;;7.10;4.60;;;;;;;15.91;61.94;99408.73;107096;1276;22785;-76
2022/05/09 07:27:32;;;;;;;6.80;4.90;;;;;;;16.01;62.00;99410.33;106640;1277;24360;-79
2022/05/09 07:29:59;;;;;;;10.90;5.50;;;;;;;16.09;60.99;99413.06;106012;1277;137154;-80
2022/05/09 07:32:26;;;;;;;9.90;5.90;;;;;;;16.14;61.42;99418.45;107195;1277;22687;-80
2022/05/09 07:35:10;;;;;;;6.40;4.80;;;;;;;16.20;60.83;99415.27;106398;1278;137138;-80
2022/05/09 07:37:38;;;;;;;6.50;4.50;;;;;;;16.27;59.78;99412.54;106455;1277;22632;-79
2022/05/09 07:40:07;;;;;;;5.10;3.90;;;;;;;16.34;59.70;99415.73;107012;1277;22554;-81
2022/05/09 07:42:34;;;;;;;10.60;4.30;;;;;;;16.42;59.13;99417.25;106643;1276;137242;-84
2022/05/09 07:45:03;;;;;;;9.10;4.20;;;;;;;16.53;58.40;99416.59;106736;1277;22638;-81
2022/05/09 07:47:45;;;;;;;9.90;4.00;;;;;;;16.64;58.56;99405.42;106445;1277;137348;-83
2022/05/09 07:50:14;;;;;;;6.90;3.70;;;;;;;16.77;58.52;99406.41;106851;1276;22576;-82
2022/05/09 07:52:42;;;;;;;8.40;4.00;;;;;;;16.88;58.55;99410.88;106144;1277;137475;-81
2022/05/09 07:55:11;;;;;;;5.70;3.80;;;;;;;16.99;56.93;99415.14;106790;1277;22562;-81
2022/05/09 07:57:38;;;;;;;6.80;3.70;;;;;;;17.05;56.30;99412.44;106533;1277;24444;-80
2022/05/09 08:00:06;;;;;;;8.40;4.80;;;;;;;17.11;56.27;99409.01;106494;1277;137497;-81
2022/05/09 08:02:48;;;;;;;8.60;4.40;;;;;;;17.18;55.76;99409.65;106817;1276;30434;-81
2022/05/09 08:05:15;;;;;;;6.30;4.30;;;;;;;17.26;54.84;99409.50;106629;1276;137265;-82
2022/05/09 08:07:56;;;;;;;7.40;3.90;;;;;;;17.33;55.23;99408.60;106294;1276;22544;-80
2022/05/09 08:10:23;;;;;;;11.80;4.30;;;;;;;17.42;54.25;99403.15;106542;1276;137808;-80
2022/05/09 08:12:52;;;;;;;6.00;3.90;;;;;;;17.53;54.50;99406.77;106552;1277;22715;-80
2022/05/09 08:15:34;;;;;;;4.50;3.30;;;;;;;17.63;54.43;99408.21;106296;1277;22541;-80
2022/05/09 08:18:02;;;;;;;7.50;3.30;;;;;;;17.74;52.60;99412.27;106638;1277;137405;-80
2022/05/09 08:20:33;;;;;;;6.60;3.50;;;;;;;17.87;52.42;99413.35;106400;1277;25333;-80
2022/05/09 08:23:06;;;;;;;5.30;3.30;;;;;;;17.90;51.16;99415.09;106233;1277;137317;-80
2022/05/09 08:25:49;;;;;;;4.50;2.90;;;;;;;17.84;51.56;99413.71;106672;1277;22705;-80
2022/05/09 08:28:18;;;;;;;5.90;3.30;;;;;;;17.77;51.94;99413.56;106463;1277;22658;-80
2022/05/09 08:30:47;;;;;;;6.50;3.10;;;;;;;17.71;51.24;99412.88;106412;1277;137366;-80
2022/05/09 08:33:17;;;;;;;3.40;2.50;;;;;;;17.60;48.68;99410.89;106472;1277;22996;-80
2022/05/09 08:35:46;;;;;;;8.00;2.80;;;;;;;17.46;49.38;99413.46;106556;1277;137196;-80
2022/05/09 08:38:14;;;;;;;4.40;2.90;;;;;;;17.40;50.22;99414.36;107031;1277;23315;-80
2022/05/09 08:41:13;;;;;;;5.20;2.80;;;;;;;17.38;50.81;99412.58;107535;1277;137417;-81
2022/05/09 08:43:55;;;;;;;;;;;;;;;17.35;50.96;99413.89;106288;1277;30330;-81
2022/05/09 08:46:38;;;;;;;5.80;3.20;;;;;;;17.32;50.86;99416.30;106464;1277;124499;-81
2022/05/09 08:49:17;;;;;;;6.80;2.50;;;;;;;17.28;51.46;99415.45;106460;1277;22578;-81
2022/05/09 08:51:58;;;;;;;4.00;2.40;;;;;;;17.24;50.80;99415.53;106324;1277;22550;-80
2022/05/09 08:54:26;;;;;;;5.80;3.00;;;;;;;17.22;50.32;99418.23;106599;1276;137673;-80
2022/05/09 08:57:00;;;;;;;5.00;2.90;;;;;;;17.37;50.37;99420.84;107134;1277;24181;-80
2022/05/09 08:59:32;;;;;;;3.60;3.00;;;;;;;17.68;50.68;99425.02;106351;1277;137617;-80
2022/05/09 09:02:19;;;;;;;6.20;2.80;;;;;;;17.90;49.88;99422.74;106518;1277;23318;-80
2022/05/09 09:04:54;;;;;;;4.70;2.80;;;;;;;17.98;50.27;99428.17;106161;1278;138901;-80
2022/05/09 09:07:24;;;;;;;6.90;3.00;;;;;;;18.12;50.73;99426.84;106683;1277;26502;-80
2022/05/09 09:10:11;;;;;;;7.10;3.40;;;;;;;18.37;50.27;99421.61;106424;1277;24241;-81
2022/05/09 09:13:08;;;;;;;8.80;3.80;;;;;;;18.64;48.61;99422.20;106407;1277;137568;-80
2022/05/09 09:15:52;;;;;;;5.50;3.00;;;;;;;18.84;48.88;99424.55;106717;1277;22594;-81
2022/05/09 09:18:48;;;;;;;6.90;3.00;;;;;;;18.93;49.08;99426.05;106305;1277;137380;-80
2022/05/09 09:21:53;;;;;;;6.80;2.80;;;;;;;18.97;48.54;99425.44;106816;1277;22551;-80
2022/05/09 09:24:31;;;;;;;6.20;3.30;;;;;;;18.96;48.66;99427.42;106940;1277;137585;-80
2022/05/09 09:27:25;;;;;;;8.70;3.80;;;;;;;18.95;48.55;99428.02;106416;1278;22562;-80
2022/05/09 09:30:13;;;;;;;6.50;2.80;;;;;;;19.09;48.83;99426.59;106154;1279;137293;-80
2022/05/09 09:32:44;;;;;;;4.70;2.30;;;;;;;19.37;47.68;99424.57;106415;1277;26004;-80
2022/05/09 09:35:48;;;;;;;4.30;1.90;;;;;;;19.68;46.85;99421.34;106275;1278;137357;-81
2022/05/09 09:38:40;;;;;;;13.40;3.80;;;;;;;20.10;46.11;99418.91;106701;1279;24333;-81
2022/05/09 09:41:25;;;;;;;3.40;2.20;;;;;;;20.42;44.28;99417.52;106851;1277;137996;-81
2022/05/09 09:44:10;;;;;;;5.30;2.20;;;;;;;20.58;43.42;99410.88;106272;1277;24387;-80
2022/05/09 09:47:05;;;;;;;4.80;2.00;;;;;;;20.85;43.38;99406.71;105817;1277;137312;-80
2022/05/09 09:49:37;;;;;;;7.00;2.30;;;;;;;21.01;42.37;99411.39;106020;1277;22705;-80
2022/05/09 09:52:21;;;;;;;2.60;1.90;;;;;;;21.03;40.91;99408.99;106330;1280;25507;-80
2022/05/09 09:54:51;;;;;;;4.10;1.70;;;;;;;21.02;40.60;99409.89;106923;1276;137393;-80
2022/05/09 09:57:36;;;;;;;6.00;1.50;;;;;;;20.91;37.67;99413.08;106434;1277;26589;-80
2022/05/09 10:00:26;;;;;;;5.40;1.90;;;;;;;20.58;38.18;99415.25;106605;1277;137608;-80
2022/05/09 10:03:20;;;;;;;5.70;2.00;;;;;;;20.42;40.76;99416.08;107008;1277;23948;-80
2022/05/09 10:06:04;;;;;;;3.80;2.20;;;;;;;20.45;40.03;99414.62;106526;1277;138036;-80
2022/05/09 10:08:38;;;;;;;6.10;2.10;;;;;;;20.77;39.71;99409.55;106305;1276;25234;-80
2022/05/09 10:11:08;;;;;;;5.50;1.90;;;;;;;20.85;39.80;99408.55;106791;1277;137948;-80
2022/05/09 10:13:58;;;;;;;6.70;2.10;;;;;;;20.81;39.71;99406.80;106327;1279;267066;-80
2022/05/09 10:16:41;;;;;;;4.90;2.20;;;;;;;20.79;40.21;99402.78;106480;1277;22654;-81
2022/05/09 10:19:11;;;;;;;6.30;2.00;;;;;;;20.83;39.64;99397.58;106004;1278;137220;-81
2022/05/09 10:24:49;;;;;;;10.10;2.30;;;;;;;20.62;38.54;99402.39;106419;1277;137702;-80
2022/05/09 10:27:29;;;;;;;3.50;1.90;;;;;;;20.40;39.21;99401.21;106329;1277;22569;-80
2022/05/09 10:30:05;;;;;;;6.50;2.10;;;;;;;20.24;39.70;99404.02;106253;1277;137647;-80
2022/05/09 10:32:47;;;;;;;3.60;1.90;;;;;;;20.10;39.18;99399.71;106319;1278;23288;-80
2022/05/09 10:35:23;;;;;;;7.50;1.90;;;;;;;20.07;39.28;99400.02;106222;1277;137855;-80
2022/05/09 10:38:18;;;;;;;3.60;1.90;;;;;;;20.21;39.50;99405.08;106338;1277;22589;-80
2022/05/09 10:40:59;;;;;;;7.50;1.80;;;;;;;20.39;39.32;99401.77;106587;1277;138210;-81
2022/05/09 10:43:50;;;;;;;8.00;2.70;;;;;;;20.65;39.21;99399.38;106465;1277;25423;-81
2022/05/09 10:46:20;;;;;;;3.70;2.00;;;;;;;21.12;38.12;99392.57;106705;1276;30716;-81
2022/05/09 10:48:53;;;;;;;4.70;1.90;;;;;;;21.42;37.13;99385.73;106443;1277;137847;-81
2022/05/09 10:51:32;;;;;;;6.90;2.00;;;;;;;21.59;37.13;99390.42;106536;1277;25273;-80
2022/05/09 10:54:12;;;;;;;4.50;1.90;;;;;;;21.48;37.50;99388.45;106352;1277;137584;-80
2022/05/09 10:57:08;;;;;;;4.10;1.90;;;;;;;21.35;36.70;99392.33;106465;1277;29998;-81
2022/05/09 10:59:41;;;;;;;4.40;1.80;;;;;;;21.15;37.70;99391.89;106107;1277;137570;-80
2022/05/09 11:02:32;;;;;;;5.80;2.00;;;;;;;21.02;38.77;99388.23;106886;1278;22657;-81
2022/05/09 11:05:00;;;;;;;5.70;1.70;;;;;;;20.97;38.84;99383.67;106280;1277;137886;-80
2022/05/09 11:07:35;;;;;;;4.90;1.80;;;;;;;20.96;37.83;99381.64;106622;1277;25552;-80
2022/05/09 11:10:14;;;;;;;6.10;1.90;;;;;;;21.15;38.31;99378.85;106329;1277;22578;-81
2022/05/09 11:12:54;;;;;;;4.00;2.20;;;;;;;21.41;37.39;99374.48;106476;1277;137812;-81
2022/05/09 11:15:33;;;;;;;3.80;2.10;;;;;;;21.63;37.43;99373.81;106239;1277;22539;-82
2022/05/09 11:18:21;;;;;;;3.80;1.90;;;;;;;21.95;37.09;99368.63;105953;1279;137862;-79
2022/05/09 11:21:00;;;;;;;6.40;2.20;;;;;;;22.27;36.74;99368.31;106393;1277;22551;-80
2022/05/09 11:24:04;;;;;;;5.40;1.90;;;;;;;22.62;36.52;99365.17;105816;1279;137866;-80
2022/05/09 11:26:47;;;;;;;5.20;2.20;;;;;;;22.88;35.78;99362.13;106544;1277;24318;-80
2022/05/09 11:29:35;;;;;;;5.00;2.00;;;;;;;23.08;34.94;99357.80;106368;1277;137363;-80
2022/05/09 11:32:16;;;;;;;4.70;1.80;;;;;;;23.24;34.88;99351.38;106304;1277;22551;-81
2022/05/09 11:34:49;;;;;;;6.40;2.10;;;;;;;23.25;35.82;99353.42;106758;1277;22543;-81
2022/05/09 11:37:22;;;;;;;5.90;2.00;;;;;;;23.28;34.33;99352.75;106694;1278;137090;-80
2022/05/09 11:39:58;;;;;;;4.70;2.10;;;;;;;23.38;32.95;99348.13;106838;1278;22544;-80
2022/05/09 11:46:01;;;;;;;5.10;2.10;;;;;;;23.33;32.86;99348.26;106426;1277;22563;-81
2022/05/09 11:49:02;;;;;;;3.40;1.80;;;;;;;22.99;32.92;99345.27;106421;1277;137376;-81
2022/05/09 11:51:32;;;;;;;4.10;1.70;;;;;;;22.60;33.87;99341.33;106398;1277;23394;-81
2022/05/09 11:54:28;;;;;;;7.00;2.40;;;;;;;22.37;34.06;99343.19;106766;1277;137779;-81
2022/05/09 11:57:07;;;;;;;4.40;2.10;;;;;;;22.21;34.24;99337.96;106622;1277;24263;-80
2022/05/09 11:59:35;;;;;;;;;;;;;;;22.27;34.01;99336.79;106259;1277;138465;-81
2022/05/09 12:02:50;;;;;;;4.70;2.00;;;;;;;22.37;34.83;99334.98;107076;1277;22947;-81
2022/05/09 12:05:26;;;;;;;4.20;1.80;;;;;;;22.59;34.86;99333.58;106289;1277;137871;-80
2022/05/09 12:08:09;;;;;;;5.20;2.60;;;;;;;22.89;34.14;99331.23;106553;1277;26148;-81
2022/05/09 12:10:39;;;;;;;4.20;1.70;;;;;;;23.23;34.02;99330.77;107110;1278;24233;-82